Time;durP1;ratioP1;P1;durP2;ratioP2;P2;SDS_P1;SDS_P2;PMS_P1;PMS_P2;Temp;Humidity;BMP_temperature;BMP_pressure;BME280_temperature;BME280_humidity;BME280_pressure;Samples;Min_cycle;Max_cycle;Signal;HPM_P1;HPM_P2
2022/03/22 04:00:23;;;;;;;3.38;2.90;;;16.70;49.30;;;;;;5976184;23;45922;-62
2022/03/22 04:02:49;;;;;;;3.67;2.70;;;16.70;49.30;;;;;;4975233;28;45584;-64
2022/03/22 04:05:15;;;;;;;3.38;2.60;;;16.60;49.30;;;;;;4984433;28;45505;-60
2022/03/22 04:07:41;;;;;;;3.63;3.10;;;16.60;49.20;;;;;;4938639;28;45115;-60
2022/03/22 04:10:07;;;;;;;3.10;2.80;;;16.60;49.30;;;;;;4987479;28;46596;-57
2022/03/22 04:12:40;;;;;;;3.15;2.85;;;16.60;49.30;;;;;;4971988;28;45491;-57
2022/03/22 04:15:05;;;;;;;3.00;2.70;;;16.60;49.40;;;;;;4972585;28;44662;-59
2022/03/22 04:17:32;;;;;;;3.17;2.88;;;16.60;49.30;;;;;;4970456;28;45399;-62
2022/03/22 04:19:58;;;;;;;3.25;2.95;;;16.60;49.30;;;;;;4969847;28;45212;-57
2022/03/22 04:22:23;;;;;;;3.05;2.75;;;16.60;49.30;;;;;;4970579;28;44926;-59
2022/03/22 04:24:49;;;;;;;3.85;3.00;;;16.60;49.30;;;;;;4970878;28;44704;-56
2022/03/22 04:32:43;;;;;;;2.90;2.60;;;16.60;49.30;;;;;;4973280;28;45477;-59
2022/03/22 04:35:19;;;;;;;4.10;3.10;;;16.60;49.30;;;;;;4969491;28;45612;-59
2022/03/22 04:37:47;;;;;;;3.65;3.20;;;16.60;49.40;;;;;;4973419;28;45668;-57
2022/03/22 04:40:14;;;;;;;3.20;2.88;;;16.50;49.30;;;;;;4971920;28;45296;-60
2022/03/22 04:42:40;;;;;;;3.25;2.88;;;16.50;49.30;;;;;;4976714;28;44754;-60
2022/03/22 04:45:06;;;;;;;3.35;2.85;;;16.60;49.40;;;;;;4978607;28;45262;-61
2022/03/22 04:47:33;;;;;;;2.80;2.47;;;16.50;49.30;;;;;;4971595;28;45277;-59
2022/03/22 04:49:59;;;;;;;3.72;3.08;;;16.50;49.30;;;;;;4973730;28;47157;-60
2022/03/22 04:57:53;;;;;;;3.90;3.00;;;16.50;49.40;;;;;;4969190;28;44668;-63
2022/03/22 05:00:19;;;;;;;2.97;2.60;;;16.50;49.40;;;;;;4965688;28;45194;-59
2022/03/22 05:02:45;;;;;;;4.05;3.13;;;16.50;49.40;;;;;;4975158;28;45474;-54
2022/03/22 05:05:11;;;;;;;3.80;2.92;;;16.50;49.50;;;;;;4979442;28;45391;-58
2022/03/22 05:07:36;;;;;;;3.22;2.60;;;16.50;49.40;;;;;;4970482;28;44891;-58
2022/03/22 05:10:03;;;;;;;3.67;2.88;;;16.50;49.40;;;;;;4970925;28;45884;-59
2022/03/22 05:12:28;;;;;;;2.90;2.60;;;16.50;49.40;;;;;;4980960;28;46190;-58
2022/03/22 05:14:54;;;;;;;3.15;2.78;;;16.40;49.30;;;;;;4982009;28;45301;-59
2022/03/22 05:17:23;;;;;;;3.17;2.70;;;16.40;49.40;;;;;;4974764;28;45058;-62
2022/03/22 05:19:50;;;;;;;4.05;3.15;;;16.40;49.40;;;;;;4969023;28;46005;-59
2022/03/22 05:22:16;;;;;;;3.20;2.90;;;16.40;49.40;;;;;;4976368;28;45363;-59
2022/03/22 05:24:42;;;;;;;3.28;2.67;;;16.40;49.40;;;;;;4977599;28;45450;-54
2022/03/22 05:27:08;;;;;;;3.10;2.50;;;16.40;49.50;;;;;;4978461;28;45520;-55
2022/03/22 05:29:33;;;;;;;3.10;2.78;;;16.40;49.40;;;;;;4990554;28;45245;-59
2022/03/22 05:32:00;;;;;;;3.63;2.85;;;16.40;49.50;;;;;;4969688;28;45939;-60
2022/03/22 05:34:26;;;;;;;3.72;3.00;;;16.40;49.40;;;;;;4988192;28;45357;-59
2022/03/22 05:36:52;;;;;;;3.65;2.85;;;16.40;49.50;;;;;;4975803;28;45239;-58
2022/03/22 05:39:18;;;;;;;3.67;3.20;;;16.40;49.50;;;;;;4968685;28;46090;-59
2022/03/22 05:41:44;;;;;;;3.10;2.80;;;16.40;49.40;;;;;;4971207;28;44702;-61
2022/03/22 05:44:13;;;;;;;3.65;2.88;;;16.40;49.40;;;;;;4973686;28;45498;-58
2022/03/22 05:46:39;;;;;;;3.00;2.72;;;16.40;49.40;;;;;;4968565;28;45220;-60
2022/03/22 05:49:05;;;;;;;3.28;2.67;;;16.40;49.40;;;;;;4971947;28;45238;-60
2022/03/22 05:51:30;;;;;;;3.83;3.22;;;16.40;49.40;;;;;;4971605;28;45275;-60
2022/03/22 05:53:56;;;;;;;2.80;2.38;;;16.30;49.40;;;;;;4976931;28;45241;-60
2022/03/22 05:56:21;;;;;;;3.60;3.05;;;16.40;49.50;;;;;;4976775;28;45508;-61
2022/03/22 05:58:47;;;;;;;3.15;2.80;;;16.30;49.30;;;;;;4951177;28;46213;-61
2022/03/22 06:01:13;;;;;;;3.50;3.13;;;16.40;49.40;;;;;;4970265;28;45418;-61
2022/03/22 06:03:38;;;;;;;4.03;3.22;;;16.40;49.40;;;;;;4969026;28;44702;-60
2022/03/22 06:06:04;;;;;;;3.40;3.03;;;16.30;49.40;;;;;;4970868;28;45410;-58
2022/03/22 06:08:30;;;;;;;3.97;3.10;;;16.30;50.00;;;;;;4965464;28;46219;-59
2022/03/22 06:10:56;;;;;;;3.20;2.88;;;16.30;49.40;;;;;;4973351;28;45379;-61
2022/03/22 06:13:22;;;;;;;2.60;2.20;;;16.30;49.40;;;;;;4970647;28;44880;-56
2022/03/22 06:15:47;;;;;;;3.10;2.80;;;16.30;49.40;;;;;;4977861;28;45269;-61
2022/03/22 06:18:13;;;;;;;3.80;2.80;;;16.30;49.40;;;;;;4976194;28;46597;-58
2022/03/22 06:20:41;;;;;;;3.35;2.92;;;16.30;49.40;;;;;;4968834;28;45489;-57
2022/03/22 06:23:07;;;;;;;4.55;2.95;;;16.30;49.40;;;;;;4963505;28;45432;-62
2022/03/22 06:25:34;;;;;;;3.30;3.00;;;16.30;49.40;;;;;;4969394;28;45319;-62
2022/03/22 06:28:00;;;;;;;3.03;2.72;;;16.30;49.30;;;;;;4967454;28;45467;-62
2022/03/22 06:30:26;;;;;;;2.85;2.53;;;16.40;49.40;;;;;;4970177;28;45248;-58
2022/03/22 06:32:59;;;;;;;2.88;2.58;;;16.30;49.40;;;;;;4962480;28;45289;-61
2022/03/22 06:35:30;;;;;;;3.40;2.88;;;16.40;49.40;;;;;;4973369;28;44673;-62
2022/03/22 06:37:55;;;;;;;3.35;2.78;;;16.40;49.30;;;;;;4985451;28;45818;-63
2022/03/22 06:40:22;;;;;;;3.13;2.83;;;16.40;49.20;;;;;;4975879;28;45158;-61
2022/03/22 06:42:48;;;;;;;3.10;2.80;;;16.40;49.20;;;;;;4978474;28;45269;-60
2022/03/22 06:45:13;;;;;;;3.50;2.70;;;16.40;49.20;;;;;;4975002;28;44708;-64
2022/03/22 06:47:39;;;;;;;3.05;2.75;;;16.40;49.10;;;;;;4972763;28;46143;-61
2022/03/22 06:50:06;;;;;;;3.05;2.58;;;16.40;49.10;;;;;;4972517;28;45374;-62
2022/03/22 06:52:32;;;;;;;2.92;2.60;;;16.50;49.00;;;;;;4977412;28;45170;-58
2022/03/22 06:54:58;;;;;;;3.13;2.78;;;16.50;49.00;;;;;;4985502;28;45329;-60
2022/03/22 06:57:23;;;;;;;2.95;2.65;;;16.50;49.00;;;;;;4976205;28;46323;-60
2022/03/22 06:59:49;;;;;;;3.38;3.08;;;16.50;48.90;;;;;;4968428;28;46134;-59
2022/03/22 07:02:14;;;;;;;3.03;2.72;;;16.50;48.90;;;;;;4963736;28;45439;-59
2022/03/22 07:04:40;;;;;;;3.25;2.95;;;16.50;48.90;;;;;;4974438;28;45013;-61
2022/03/22 07:07:07;;;;;;;3.35;2.95;;;16.50;48.80;;;;;;4972288;28;47076;-60
2022/03/22 07:09:33;;;;;;;3.03;2.70;;;16.60;48.80;;;;;;4973789;28;45360;-59
2022/03/22 07:12:00;;;;;;;3.35;2.40;;;16.70;48.70;;;;;;4975364;28;45291;-60
2022/03/22 07:14:26;;;;;;;3.13;2.83;;;16.80;48.50;;;;;;4979134;28;45594;-61
2022/03/22 07:16:52;;;;;;;2.63;2.42;;;16.90;48.40;;;;;;4977518;28;45409;-56
2022/03/22 07:19:19;;;;;;;3.00;2.70;;;17.10;48.30;;;;;;4973724;28;45196;-59
2022/03/22 07:21:45;;;;;;;2.85;2.40;;;17.20;48.10;;;;;;4965010;28;44985;-59
2022/03/22 07:24:11;;;;;;;2.80;2.45;;;17.30;48.00;;;;;;4969142;28;45360;-61
2022/03/22 07:26:38;;;;;;;3.05;2.60;;;17.40;47.80;;;;;;4975558;28;45370;-55
2022/03/22 07:29:04;;;;;;;2.78;2.35;;;17.50;47.70;;;;;;4964638;28;44970;-63
2022/03/22 07:31:29;;;;;;;2.67;2.40;;;17.70;47.60;;;;;;4968541;28;45413;-60
2022/03/22 07:33:56;;;;;;;2.63;2.42;;;17.80;47.50;;;;;;4974542;28;45661;-58
2022/03/22 07:36:21;;;;;;;3.05;2.35;;;17.90;47.40;;;;;;4983111;28;46201;-61
2022/03/22 07:38:47;;;;;;;3.50;2.58;;;18.00;47.30;;;;;;4979660;28;45350;-62
2022/03/22 07:41:13;;;;;;;2.53;2.28;;;18.10;47.20;;;;;;4977744;28;45445;-58
2022/03/22 07:43:41;;;;;;;3.17;2.40;;;18.30;47.10;;;;;;4979671;28;45049;-57
2022/03/22 07:46:07;;;;;;;2.70;2.33;;;18.40;47.10;;;;;;4979516;28;45983;-62
2022/03/22 07:48:32;;;;;;;2.08;1.90;;;18.50;46.90;;;;;;4979104;28;45227;-62
2022/03/22 07:53:43;;;;;;;2.40;2.10;;;18.70;46.70;;;;;;4979672;28;45183;-58
2022/03/22 07:56:09;;;;;;;2.38;2.17;;;18.80;46.60;;;;;;4973943;28;46903;-60
2022/03/22 07:58:34;;;;;;;2.30;2.10;;;18.90;46.50;;;;;;4978773;28;44646;-61
2022/03/22 08:01:00;;;;;;;2.40;2.20;;;19.10;46.50;;;;;;4980837;28;45090;-62
2022/03/22 08:03:26;;;;;;;2.42;2.03;;;19.20;46.40;;;;;;4978314;28;45500;-62
2022/03/22 08:05:52;;;;;;;1.98;1.77;;;19.30;46.30;;;;;;4979034;28;45998;-61
2022/03/22 08:08:17;;;;;;;2.50;1.98;;;19.40;46.20;;;;;;4975116;28;44950;-65
2022/03/22 08:10:45;;;;;;;3.47;1.80;;;19.50;46.10;;;;;;4978620;28;45414;-63
2022/03/22 08:13:11;;;;;;;2.15;1.95;;;19.60;46.10;;;;;;4973300;28;44681;-65
2022/03/22 08:15:37;;;;;;;2.45;2.25;;;19.70;46.00;;;;;;4984450;28;45376;-65
2022/03/22 08:18:03;;;;;;;1.83;1.60;;;19.80;45.90;;;;;;4977328;28;45002;-65
2022/03/22 08:20:30;;;;;;;1.80;1.70;;;19.90;45.80;;;;;;4973230;28;44831;-66
2022/03/22 08:22:58;;;;;;;1.65;1.55;;;20.00;45.70;;;;;;4977783;28;45198;-65
2022/03/22 08:25:29;;;;;;;1.80;1.70;;;20.10;45.60;;;;;;4962485;28;46154;-67
2022/03/22 08:27:55;;;;;;;1.88;1.67;;;20.20;45.50;;;;;;4985858;28;44672;-67
2022/03/22 08:30:21;;;;;;;1.92;1.70;;;20.30;45.40;;;;;;4982030;28;44727;-66
2022/03/22 08:32:51;;;;;;;2.00;1.80;;;20.40;45.30;;;;;;4979079;28;45434;-66
2022/03/22 08:35:18;;;;;;;2.00;1.80;;;20.60;45.30;;;;;;4978846;28;46100;-67
2022/03/22 08:37:44;;;;;;;1.73;1.50;;;20.70;45.20;;;;;;4957467;28;45231;-66
2022/03/22 08:40:10;;;;;;;2.42;1.77;;;20.80;45.10;;;;;;4964790;28;45278;-66
2022/03/22 08:42:37;;;;;;;2.13;1.92;;;20.80;45.00;;;;;;4971274;28;45398;-68
2022/03/22 08:45:06;;;;;;;3.97;1.85;;;20.90;45.00;;;;;;4977753;28;45919;-67
2022/03/22 08:47:35;;;;;;;2.15;1.77;;;21.00;44.90;;;;;;4979934;28;45265;-65
2022/03/22 08:50:01;;;;;;;2.20;2.00;;;21.10;44.80;;;;;;4978518;28;45253;-67
2022/03/22 08:52:27;;;;;;;2.05;1.70;;;21.20;44.80;;;;;;4993674;28;45146;-65
2022/03/22 08:54:52;;;;;;;1.90;1.70;;;21.30;44.70;;;;;;4980644;28;45411;-65
2022/03/22 08:57:18;;;;;;;2.30;2.10;;;21.40;44.60;;;;;;4980205;28;45123;-65
2022/03/22 08:59:43;;;;;;;1.90;1.63;;;21.50;44.60;;;;;;4974605;28;45303;-66
2022/03/22 09:02:09;;;;;;;1.85;1.73;;;21.60;44.50;;;;;;4976058;28;45266;-67
2022/03/22 09:07:19;;;;;;;1.50;1.40;;;21.70;44.30;;;;;;4974173;28;44985;-66
2022/03/22 09:09:45;;;;;;;1.65;1.55;;;21.90;44.30;;;;;;4985672;28;45196;-67
2022/03/22 09:12:12;;;;;;;2.28;1.90;;;21.90;44.20;;;;;;4970076;28;45219;-68
2022/03/22 09:14:38;;;;;;;1.50;1.40;;;22.00;44.10;;;;;;4968638;28;45884;-63
2022/03/22 09:17:05;;;;;;;1.40;1.30;;;22.10;44.00;;;;;;4976144;28;45223;-64
2022/03/22 09:19:33;;;;;;;1.80;1.63;;;22.20;44.00;;;;;;4979628;28;45262;-65
2022/03/22 09:22:00;;;;;;;1.42;1.33;;;22.30;43.90;;;;;;4976822;28;45425;-62
2022/03/22 09:24:25;;;;;;;1.55;1.30;;;22.30;43.90;;;;;;4977235;28;46045;-65
2022/03/22 09:26:51;;;;;;;1.75;1.38;;;22.40;43.80;;;;;;4977471;28;45189;-63
2022/03/22 09:29:16;;;;;;;1.67;1.38;;;22.50;43.80;;;;;;4977108;28;44682;-64
2022/03/22 09:31:42;;;;;;;1.25;1.15;;;22.50;43.70;;;;;;4970914;28;45664;-63
2022/03/22 09:34:10;;;;;;;2.05;1.58;;;22.60;43.70;;;;;;4975057;28;45564;-62
2022/03/22 09:36:37;;;;;;;1.40;1.30;;;22.70;43.70;;;;;;4974177;28;45269;-65
2022/03/22 09:39:04;;;;;;;1.63;1.52;;;22.70;43.60;;;;;;4963100;28;45296;-65
2022/03/22 09:41:30;;;;;;;1.63;1.50;;;22.80;43.60;;;;;;4977679;28;45349;-64
2022/03/22 09:43:56;;;;;;;1.92;1.55;;;22.80;43.50;;;;;;4976558;28;46165;-64
2022/03/22 09:46:22;;;;;;;1.58;1.48;;;22.90;43.40;;;;;;4970728;28;45247;-65
2022/03/22 09:48:48;;;;;;;1.67;1.58;;;23.00;43.50;;;;;;4983972;28;44637;-61
2022/03/22 09:54:00;;;;;;;1.27;1.15;;;23.10;43.40;;;;;;4977228;28;46309;-62
2022/03/22 09:56:30;;;;;;;1.40;1.30;;;23.10;43.30;;;;;;4953928;28;45213;-66
2022/03/22 09:58:59;;;;;;;1.33;1.23;;;23.20;43.30;;;;;;4969289;28;45303;-65
2022/03/22 10:01:25;;;;;;;1.35;1.25;;;23.20;43.10;;;;;;4973810;28;45526;-67
2022/03/22 10:04:02;;;;;;;1.45;1.27;;;23.20;43.70;;;;;;4974514;28;47292;-68
2022/03/22 10:06:28;;;;;;;2.30;1.50;;;23.30;42.80;;;;;;4974314;28;45277;-67
2022/03/22 10:08:54;;;;;;;2.03;1.65;;;23.30;43.10;;;;;;4974552;28;45284;-68
2022/03/22 10:11:20;;;;;;;2.13;1.80;;;23.40;43.00;;;;;;4971130;28;45475;-65
2022/03/22 10:13:55;;;;;;;1.85;1.30;;;23.40;42.90;;;;;;4980162;28;45547;-69
2022/03/22 10:16:21;;;;;;;1.20;1.10;;;23.50;42.70;;;;;;4970988;28;45293;-70
2022/03/22 10:18:46;;;;;;;1.40;1.30;;;23.50;43.00;;;;;;4978775;28;45346;-67
2022/03/22 10:21:12;;;;;;;1.42;1.33;;;23.60;42.90;;;;;;4977173;28;45401;-64
2022/03/22 10:23:51;;;;;;;1.60;1.40;;;23.60;42.90;;;;;;4975826;28;45838;-63
2022/03/22 10:26:17;;;;;;;1.55;1.45;;;23.70;42.70;;;;;;4977558;28;45421;-60
2022/03/22 10:28:53;;;;;;;1.40;1.30;;;23.70;42.80;;;;;;4977775;28;45590;-67
2022/03/22 10:31:20;;;;;;;1.73;1.45;;;23.70;42.60;;;;;;4963188;28;45556;-64
2022/03/22 10:33:52;;;;;;;1.30;1.10;;;23.80;42.80;;;;;;4971581;28;47031;-62
2022/03/22 10:36:21;;;;;;;1.50;1.40;;;23.80;42.60;;;;;;4974523;28;44774;-65
2022/03/22 10:38:58;;;;;;;1.38;1.27;;;23.80;42.70;;;;;;4976473;28;45357;-66
2022/03/22 10:41:27;;;;;;;1.50;1.40;;;23.90;42.60;;;;;;4975693;28;45303;-67
2022/03/22 10:44:04;;;;;;;2.20;1.27;;;23.90;42.70;;;;;;4977737;28;46464;-64
2022/03/22 10:46:29;;;;;;;1.42;1.33;;;23.90;42.40;;;;;;4972153;28;45040;-67
2022/03/22 10:49:27;;;;;;;1.40;1.27;;;23.90;42.60;;;;;;4976945;28;45198;-67
2022/03/22 10:51:53;;;;;;;1.33;1.23;;;24.00;42.30;;;;;;4952374;28;44767;-66
2022/03/22 10:54:19;;;;;;;1.60;1.42;;;24.00;42.60;;;;;;4982300;28;45879;-68
2022/03/22 10:56:47;;;;;;;1.20;1.00;;;24.10;42.60;;;;;;4957611;28;45699;-65
2022/03/22 10:59:14;;;;;;;1.48;1.20;;;24.10;42.60;;;;;;4977423;28;45486;-61
2022/03/22 11:01:42;;;;;;;1.08;1.00;;;24.10;42.50;;;;;;4972912;28;44781;-64
2022/03/22 11:04:07;;;;;;;1.20;1.15;;;24.10;42.50;;;;;;4981404;28;46024;-67
2022/03/22 11:06:33;;;;;;;1.92;1.25;;;24.20;42.50;;;;;;4968729;28;44709;-71
2022/03/22 11:08:59;;;;;;;2.30;1.38;;;24.20;42.50;;;;;;4954775;28;45404;-61
2022/03/22 11:11:24;;;;;;;;;;;24.20;42.50;;;;;;4978096;28;44828;-58
2022/03/22 11:13:50;;;;;;;;;;;24.30;42.20;;;;;;4980982;28;46187;-57
2022/03/22 11:16:16;;;;;;;;;;;24.40;41.90;;;;;;4977273;28;45155;-57
2022/03/22 11:18:41;;;;;;;1.33;1.23;;;24.50;41.60;;;;;;4976485;28;45236;-58
2022/03/22 11:21:07;;;;;;;1.50;1.40;;;24.50;41.90;;;;;;4960779;28;44817;-58
2022/03/22 11:23:33;;;;;;;1.52;1.35;;;24.50;41.90;;;;;;4982451;28;45486;-57
2022/03/22 11:26:12;;;;;;;1.17;1.08;;;24.50;41.90;;;;;;4973739;28;45926;-55
2022/03/22 11:28:39;;;;;;;1.65;1.48;;;24.50;41.70;;;;;;4973962;28;46469;-57
2022/03/22 11:31:06;;;;;;;2.42;2.03;;;24.40;40.50;;;;;;4986373;28;45124;-55
2022/03/22 11:36:20;;;;;;;2.25;1.80;;;24.30;38.30;;;;;;4972138;28;45204;-56
2022/03/22 11:38:50;;;;;;;2.60;1.30;;;24.10;38.20;;;;;;4979809;28;45305;-57
2022/03/22 11:44:16;;;;;;;1.70;1.60;;;24.10;39.80;;;;;;4970813;28;45873;-56
2022/03/22 11:46:42;;;;;;;2.65;1.60;;;24.00;39.80;;;;;;4972485;28;44607;-58
2022/03/22 11:49:15;;;;;;;1.73;1.63;;;23.90;40.20;;;;;;4985804;28;45269;-55
2022/03/22 11:51:51;;;;;;;1.67;1.55;;;23.90;40.30;;;;;;4982997;28;44920;-54
2022/03/22 11:54:17;;;;;;;2.40;1.65;;;23.80;40.40;;;;;;4975351;28;46177;-51
2022/03/22 11:56:47;;;;;;;2.15;1.60;;;23.80;40.80;;;;;;4986921;28;44780;-57
2022/03/22 11:59:16;;;;;;;2.92;1.77;;;23.70;40.80;;;;;;4978833;28;45202;-55
2022/03/22 12:01:53;;;;;;;1.48;1.27;;;23.70;41.00;;;;;;4977330;28;44986;-52
2022/03/22 12:04:18;;;;;;;1.33;1.23;;;23.60;41.20;;;;;;4982362;28;45497;-56
2022/03/22 12:06:44;;;;;;;1.60;1.50;;;23.60;41.40;;;;;;4978441;28;44892;-57
2022/03/22 12:09:10;;;;;;;4.93;1.60;;;23.50;41.50;;;;;;4964724;28;45066;-55
2022/03/22 12:11:36;;;;;;;1.95;1.67;;;23.50;41.60;;;;;;4987139;28;45518;-57
2022/03/22 12:14:02;;;;;;;1.77;1.60;;;23.40;41.70;;;;;;4988606;28;46030;-55
2022/03/22 12:16:28;;;;;;;1.73;1.50;;;23.40;41.80;;;;;;4981763;28;45174;-56
2022/03/22 12:18:53;;;;;;;3.30;1.40;;;23.40;41.90;;;;;;4983122;28;44686;-56
2022/03/22 12:21:21;;;;;;;1.80;1.40;;;23.40;42.00;;;;;;4977902;28;44823;-56
2022/03/22 12:23:47;;;;;;;1.83;1.60;;;23.30;42.10;;;;;;4995980;28;45408;-55
2022/03/22 12:26:12;;;;;;;1.63;1.50;;;23.30;42.30;;;;;;4982870;28;45230;-57
2022/03/22 12:28:51;;;;;;;1.65;1.40;;;23.30;42.30;;;;;;4990398;28;45441;-55
2022/03/22 12:31:21;;;;;;;1.63;1.33;;;23.20;42.30;;;;;;4983213;28;45427;-58
2022/03/22 12:33:57;;;;;;;1.70;1.50;;;23.10;42.50;;;;;;4983000;28;46125;-57
2022/03/22 12:36:23;;;;;;;1.73;1.38;;;23.10;42.50;;;;;;4982412;28;45234;-55
2022/03/22 12:38:49;;;;;;;1.77;1.63;;;23.10;42.60;;;;;;4982246;28;45379;-57
2022/03/22 12:41:14;;;;;;;1.52;1.42;;;23.00;42.70;;;;;;4975285;28;44825;-54
2022/03/22 12:43:45;;;;;;;2.35;1.55;;;23.00;42.80;;;;;;4975217;28;45698;-56
2022/03/22 12:46:13;;;;;;;1.50;1.40;;;23.00;42.90;;;;;;4973473;28;44739;-56
2022/03/22 12:48:40;;;;;;;3.45;1.13;;;22.90;42.90;;;;;;4982399;28;45183;-58
2022/03/22 12:51:05;;;;;;;1.30;1.20;;;22.90;43.00;;;;;;4976303;28;45231;-56
2022/03/22 12:53:32;;;;;;;1.77;1.50;;;22.90;43.10;;;;;;4984525;28;45928;-58
2022/03/22 12:55:57;;;;;;;1.60;1.50;;;22.80;43.20;;;;;;4984526;28;44953;-57
2022/03/22 12:58:29;;;;;;;1.70;1.40;;;22.80;43.30;;;;;;4984320;28;45309;-56
2022/03/22 13:00:55;;;;;;;1.83;1.50;;;22.80;43.40;;;;;;4977849;28;45368;-58
2022/03/22 13:03:21;;;;;;;1.77;1.45;;;22.70;43.40;;;;;;4989065;28;45924;-58
2022/03/22 13:05:47;;;;;;;1.45;1.35;;;22.70;44.10;;;;;;4981366;28;45220;-57
2022/03/22 13:08:18;;;;;;;1.40;1.30;;;22.60;43.50;;;;;;4983715;28;45067;-55
2022/03/22 13:15:01;;;;;;;2.80;1.50;;;22.60;43.70;;;;;;4978862;28;45074;-57
2022/03/22 13:16:27;;;;;;;1.45;1.35;;;22.60;43.80;;;;;;4983981;28;44709;-56
2022/03/22 13:18:57;;;;;;;1.67;1.52;;;22.50;43.80;;;;;;4983486;28;44867;-60
2022/03/22 13:21:30;;;;;;;1.90;1.30;;;22.50;43.80;;;;;;4987453;28;45522;-60
2022/03/22 13:23:59;;;;;;;;;;;22.50;43.90;;;;;;4975443;28;46045;-58
2022/03/22 13:26:24;;;;;;;1.13;1.02;;;22.40;44.10;;;;;;4984975;28;44850;-59
2022/03/22 13:28:50;;;;;;;2.10;1.80;;;22.40;44.10;;;;;;4982740;28;45063;-56
2022/03/22 13:31:22;;;;;;;1.58;1.45;;;22.40;44.10;;;;;;4979657;28;45187;-58
2022/03/22 13:33:55;;;;;;;2.47;1.70;;;22.40;44.30;;;;;;4979399;28;46224;-57
2022/03/22 13:36:21;;;;;;;1.75;1.50;;;22.40;44.30;;;;;;4979034;28;45511;-56
2022/03/22 13:38:51;;;;;;;3.03;1.40;;;22.30;44.30;;;;;;4973518;28;45810;-58
2022/03/22 13:41:26;;;;;;;1.73;1.50;;;22.30;44.40;;;;;;4985450;28;44728;-58
2022/03/22 13:43:52;;;;;;;1.40;1.30;;;22.20;44.40;;;;;;4981365;28;45987;-59
2022/03/22 13:46:18;;;;;;;1.38;1.27;;;22.20;44.40;;;;;;4986700;28;44973;-52
2022/03/22 13:48:53;;;;;;;1.55;1.35;;;22.20;44.50;;;;;;4982386;28;45270;-59
2022/03/22 13:51:20;;;;;;;3.40;1.70;;;22.20;44.60;;;;;;4983934;28;45185;-61
2022/03/22 13:53:45;;;;;;;2.00;1.58;;;22.10;44.60;;;;;;4981441;28;46232;-59
2022/03/22 13:56:11;;;;;;;2.25;1.60;;;22.10;44.60;;;;;;4966706;28;45392;-56
2022/03/22 13:58:41;;;;;;;1.88;1.60;;;22.10;44.80;;;;;;4979674;28;45262;-58
2022/03/22 14:01:10;;;;;;;2.47;1.75;;;22.10;44.80;;;;;;4979273;28;45171;-59
2022/03/22 14:03:35;;;;;;;1.50;1.40;;;22.10;44.90;;;;;;4981418;28;47169;-57
2022/03/22 14:06:01;;;;;;;1.55;1.35;;;22.00;44.90;;;;;;4985051;28;44739;-53
2022/03/22 14:08:26;;;;;;;1.50;1.40;;;22.00;44.90;;;;;;4979415;28;45205;-58
2022/03/22 14:10:54;;;;;;;1.25;1.15;;;22.00;45.00;;;;;;4990471;28;45202;-54
2022/03/22 14:13:22;;;;;;;1.35;1.25;;;22.00;45.00;;;;;;4981906;28;45921;-58
2022/03/22 14:15:48;;;;;;;1.80;1.60;;;21.90;45.00;;;;;;4983622;28;45083;-57
2022/03/22 14:18:13;;;;;;;1.52;1.42;;;21.90;45.10;;;;;;4975641;28;45308;-57
2022/03/22 14:20:39;;;;;;;2.08;1.60;;;21.90;45.20;;;;;;4981441;28;45215;-59
2022/03/22 14:23:05;;;;;;;1.92;1.73;;;21.90;45.20;;;;;;4987764;28;47014;-59
2022/03/22 14:25:31;;;;;;;2.80;1.60;;;21.90;45.20;;;;;;4985924;28;45090;-60
2022/03/22 14:27:57;;;;;;;1.77;1.60;;;21.90;45.30;;;;;;4987999;28;45206;-56
2022/03/22 14:30:24;;;;;;;1.75;1.52;;;21.80;45.90;;;;;;4976367;28;44683;-56
2022/03/22 14:32:53;;;;;;;1.50;1.35;;;21.90;45.30;;;;;;4986019;28;47577;-58
2022/03/22 14:38:04;;;;;;;1.63;1.52;;;21.80;45.40;;;;;;4972499;28;45338;-55
2022/03/22 14:40:30;;;;;;;1.50;1.33;;;21.80;45.40;;;;;;4979690;28;45329;-54
2022/03/22 14:42:57;;;;;;;1.38;1.27;;;21.80;45.50;;;;;;4982964;28;46212;-56
2022/03/22 14:45:23;;;;;;;1.80;1.33;;;21.70;45.50;;;;;;4992000;28;45266;-57
2022/03/22 14:47:49;;;;;;;1.70;1.50;;;21.80;45.60;;;;;;4977262;28;44934;-55
2022/03/22 14:50:16;;;;;;;1.27;1.17;;;21.70;45.60;;;;;;4980715;28;45341;-57
2022/03/22 14:55:26;;;;;;;1.88;1.40;;;21.70;45.70;;;;;;4981651;28;44610;-59
2022/03/22 15:00:37;;;;;;;2.83;1.42;;;21.70;45.70;;;;;;4979463;28;44661;-56
2022/03/22 15:03:04;;;;;;;1.63;1.52;;;21.70;45.80;;;;;;4979626;28;45202;-57
2022/03/22 15:05:41;;;;;;;2.13;1.88;;;21.60;45.80;;;;;;4973706;28;45561;-57
2022/03/22 15:08:09;;;;;;;1.65;1.55;;;21.60;45.80;;;;;;4965980;28;45934;-57
2022/03/22 15:10:39;;;;;;;1.40;1.30;;;21.60;46.50;;;;;;4972874;28;45533;-58
2022/03/22 15:13:07;;;;;;;1.67;1.50;;;21.60;45.90;;;;;;4977760;28;46444;-58
2022/03/22 15:15:33;;;;;;;1.40;1.30;;;21.60;45.90;;;;;;4977386;28;45664;-58
2022/03/22 15:18:02;;;;;;;1.60;1.50;;;21.60;45.90;;;;;;4971186;28;45724;-52
2022/03/22 15:20:28;;;;;;;1.85;1.60;;;21.60;45.90;;;;;;4970765;28;45211;-55
2022/03/22 15:22:54;;;;;;;2.00;1.60;;;21.60;46.00;;;;;;4975080;28;46400;-59
2022/03/22 15:25:20;;;;;;;1.67;1.58;;;21.50;46.00;;;;;;4973359;28;45026;-60
2022/03/22 15:27:45;;;;;;;1.55;1.45;;;21.50;46.00;;;;;;4978990;28;45193;-61
2022/03/22 15:30:11;;;;;;;2.45;1.23;;;21.50;46.10;;;;;;4966717;28;44747;-59
2022/03/22 15:32:36;;;;;;;1.88;1.65;;;21.50;46.10;;;;;;4970944;28;46028;-59
2022/03/22 15:35:03;;;;;;;2.03;1.50;;;21.50;46.10;;;;;;4970742;28;45112;-57
2022/03/22 15:37:30;;;;;;;1.27;1.17;;;21.50;46.20;;;;;;4969592;28;44656;-55
2022/03/22 15:39:56;;;;;;;2.05;1.52;;;21.50;46.20;;;;;;4971860;28;45127;-59
2022/03/22 15:42:23;;;;;;;1.90;1.70;;;21.50;46.20;;;;;;4977598;28;46134;-60
2022/03/22 15:44:49;;;;;;;1.63;1.52;;;21.50;46.30;;;;;;4976635;28;45973;-59
2022/03/22 15:47:14;;;;;;;1.58;1.40;;;21.40;46.20;;;;;;4973810;28;45256;-56
2022/03/22 15:49:40;;;;;;;1.50;1.40;;;21.50;46.30;;;;;;4975675;28;44755;-57
2022/03/22 15:52:06;;;;;;;2.00;1.67;;;21.40;46.30;;;;;;4974405;28;45497;-59
2022/03/22 15:54:34;;;;;;;1.50;1.40;;;21.40;46.40;;;;;;4968698;28;44970;-58
2022/03/22 15:57:01;;;;;;;1.60;1.35;;;21.40;46.40;;;;;;4977954;28;45479;-60
2022/03/22 15:59:27;;;;;;;1.38;1.27;;;21.40;46.40;;;;;;4979338;28;45507;-59
2022/03/22 16:01:53;;;;;;;1.67;1.58;;;21.40;46.50;;;;;;4971517;28;46199;-55
2022/03/22 16:04:19;;;;;;;1.77;1.48;;;21.40;46.50;;;;;;4981684;28;45183;-58
2022/03/22 16:06:48;;;;;;;1.50;1.40;;;21.30;46.50;;;;;;4978221;28;45473;-56
2022/03/22 16:09:16;;;;;;;1.60;1.25;;;21.30;46.50;;;;;;4977541;28;45284;-58
2022/03/22 16:11:45;;;;;;;1.50;1.40;;;21.30;46.50;;;;;;4978013;28;45916;-56
2022/03/22 16:14:12;;;;;;;1.60;1.45;;;21.30;46.60;;;;;;4975411;28;45406;-58
2022/03/22 16:16:40;;;;;;;1.42;1.33;;;21.30;46.60;;;;;;4977756;28;45584;-56
2022/03/22 16:19:06;;;;;;;1.70;1.55;;;21.30;46.60;;;;;;4963154;28;45188;-56
2022/03/22 16:21:32;;;;;;;3.50;1.50;;;21.30;46.60;;;;;;4970735;28;46913;-59
2022/03/22 16:23:58;;;;;;;2.53;1.83;;;21.30;46.70;;;;;;4981731;28;45114;-56
2022/03/22 16:26:23;;;;;;;3.33;1.52;;;21.20;46.60;;;;;;4973327;28;45334;-58
2022/03/22 16:28:49;;;;;;;1.65;1.40;;;21.30;46.70;;;;;;4978290;28;45582;-58
2022/03/22 16:31:16;;;;;;;1.38;1.27;;;21.20;46.70;;;;;;4972657;28;46151;-60
2022/03/22 16:39:22;;;;;;;2.50;1.60;;;21.20;46.80;;;;;;4977168;28;45707;-57
2022/03/22 16:42:04;;;;;;;2.55;1.60;;;21.10;46.80;;;;;;4980360;28;45328;-54
2022/03/22 16:44:37;;;;;;;1.70;1.50;;;21.10;46.80;;;;;;4981907;28;45607;-56
2022/03/22 16:47:12;;;;;;;1.52;1.38;;;21.10;47.40;;;;;;4976590;28;45127;-53
2022/03/22 16:49:39;;;;;;;1.90;1.50;;;21.10;46.90;;;;;;4973044;28;45520;-58
2022/03/22 16:52:05;;;;;;;1.77;1.50;;;21.10;46.80;;;;;;4976061;28;46327;-59
2022/03/22 16:54:31;;;;;;;1.63;1.52;;;21.10;46.80;;;;;;4975843;28;45969;-55
2022/03/22 16:56:58;;;;;;;2.15;1.63;;;21.10;47.00;;;;;;4965879;28;45382;-56
2022/03/22 16:59:24;;;;;;;5.32;1.63;;;21.10;47.00;;;;;;4965643;28;45352;-57
2022/03/22 17:01:50;;;;;;;1.60;1.50;;;21.00;47.10;;;;;;4964303;28;46162;-59
2022/03/22 17:04:17;;;;;;;1.50;1.40;;;21.00;47.10;;;;;;4969538;28;45075;-56
2022/03/22 17:06:43;;;;;;;2.30;1.73;;;21.00;47.20;;;;;;4969396;28;45480;-57
2022/03/22 17:09:08;;;;;;;2.35;1.63;;;20.90;47.20;;;;;;4970867;28;45662;-58
2022/03/22 17:11:38;;;;;;;1.58;1.45;;;20.90;47.20;;;;;;4971055;28;46526;-58
2022/03/22 17:14:04;;;;;;;2.45;1.88;;;20.90;47.30;;;;;;4969432;28;45259;-59
2022/03/22 17:16:32;;;;;;;3.72;1.52;;;20.80;47.40;;;;;;4975717;28;45068;-60
2022/03/22 17:19:00;;;;;;;1.65;1.50;;;20.80;47.40;;;;;;4975860;28;45583;-58
2022/03/22 17:21:27;;;;;;;2.97;1.33;;;20.80;47.50;;;;;;4971023;28;45996;-59
2022/03/22 17:23:52;;;;;;;4.28;1.33;;;20.70;47.50;;;;;;4966337;28;45313;-58
2022/03/22 17:26:20;;;;;;;2.28;1.25;;;20.70;47.50;;;;;;4973246;28;45426;-59
2022/03/22 17:28:49;;;;;;;3.35;1.63;;;20.70;47.60;;;;;;4971070;28;45236;-55